Time;durP1;ratioP1;P1;durP2;ratioP2;P2;SDS_P1;SDS_P2;PMS_P1;PMS_P2;Temp;Humidity;BMP_temperature;BMP_pressure;BME280_temperature;BME280_humidity;BME280_pressure;Samples;Min_cycle;Max_cycle;Signal;HPM_P1;HPM_P2
2024/02/25 00:01:53;;;;;;;;;;;;;;;;;;137826;1270;22505;-81
2024/02/25 00:04:56;;;;;;;;;;;;;;;;;;137800;1271;22534;-81
2024/02/25 00:07:59;;;;;;;;;;;;;;;;;;137813;1270;22493;-80
2024/02/25 00:11:02;;;;;;;;;;;;;;;;;;137771;1271;22490;-81
2024/02/25 00:14:04;;;;;;;;;;;;;;;;;;137795;1270;22586;-82
2024/02/25 00:17:07;;;;;;;;;;;;;;;;;;137839;1270;22327;-81
2024/02/25 00:20:09;;;;;;;;;;;;;;;;;;137823;1270;23073;-80
2024/02/25 00:23:12;;;;;;;;;;;;;;;;;;137954;1271;22497;-81
2024/02/25 00:26:14;;;;;;;;;;;;;;;;;;137715;1271;22460;-80
2024/02/25 00:29:17;;;;;;;;;;;;;;;;;;137938;1271;22541;-82
2024/02/25 00:32:20;;;;;;;;;;;;;;;;;;137569;1271;22511;-82
2024/02/25 00:35:23;;;;;;;;;;;;;;;;;;137984;1270;22525;-82
2024/02/25 00:38:25;;;;;;;;;;;;;;;;;;137821;1270;22546;-80
2024/02/25 00:41:28;;;;;;;;;;;;;;;;;;137782;1270;23002;-79
2024/02/25 00:44:34;;;;;;;;;;;;;;;;;;137720;1270;22548;-80
2024/02/25 00:47:36;;;;;;;;;;;;;;;;;;137832;1270;22543;-80
2024/02/25 00:50:39;;;;;;;;;;;;;;;;;;137842;1269;22482;-80
2024/02/25 00:53:42;;;;;;;;;;;;;;;;;;137861;1272;22398;-80
2024/02/25 00:56:47;;;;;;;;;;;;;;;;;;137890;1270;22770;-80
2024/02/25 00:59:50;;;;;;;;;;;;;;;;;;137969;1270;22809;-80
2024/02/25 01:02:52;;;;;;;;;;;;;;;;;;137986;1271;22734;-80
2024/02/25 01:05:55;;;;;;;;;;;;;;;;;;137994;1271;22178;-80
2024/02/25 01:08:57;;;;;;;;;;;;;;;;;;137967;1271;22414;-80
2024/02/25 01:12:00;;;;;;;;;;;;;;;;;;138032;1270;22173;-80
2024/02/25 01:15:02;;;;;;;;;;;;;;;;;;138011;1270;22177;-80
2024/02/25 01:18:05;;;;;;;;;;;;;;;;;;137994;1271;22275;-80
2024/02/25 01:21:08;;;;;;;;;;;;;;;;;;138002;1271;22544;-80
2024/02/25 01:24:10;;;;;;;;;;;;;;;;;;137982;1271;22791;-80
2024/02/25 01:27:13;;;;;;;;;;;;;;;;;;138005;1271;22167;-80
2024/02/25 01:30:16;;;;;;;;;;;;;;;;;;137977;1271;22866;-80
2024/02/25 01:33:18;;;;;;;;;;;;;;;;;;137980;1271;22205;-80
2024/02/25 01:36:20;;;;;;;;;;;;;;;;;;137960;1271;22591;-80
2024/02/25 01:39:23;;;;;;;;;;;;;;;;;;137983;1270;22166;-81
2024/02/25 01:42:25;;;;;;;;;;;;;;;;;;137966;1270;22262;-80
2024/02/25 01:45:28;;;;;;;;;;;;;;;;;;137988;1270;22525;-80
2024/02/25 01:48:32;;;;;;;;;;;;;;;;;;137938;1270;22816;-80
2024/02/25 01:51:34;;;;;;;;;;;;;;;;;;138004;1270;22343;-80
2024/02/25 01:54:36;;;;;;;;;;;;;;;;;;137968;1270;22392;-80
2024/02/25 01:57:39;;;;;;;;;;;;;;;;;;137957;1271;22320;-80
2024/02/25 02:00:42;;;;;;;;;;;;;;;;;;137977;1270;22781;-80
2024/02/25 02:03:44;;;;;;;;;;;;;;;;;;137936;1271;22323;-80
2024/02/25 02:06:47;;;;;;;;;;;;;;;;;;138009;1270;22273;-80
2024/02/25 02:09:49;;;;;;;;;;;;;;;;;;137953;1270;22401;-81
2024/02/25 02:12:52;;;;;;;;;;;;;;;;;;137970;1271;22150;-80
2024/02/25 02:15:54;;;;;;;;;;;;;;;;;;137968;1270;22733;-80
2024/02/25 02:18:57;;;;;;;;;;;;;;;;;;137975;1266;22656;-80
2024/02/25 02:21:59;;;;;;;;;;;;;;;;;;137961;1270;22253;-80
2024/02/25 02:25:02;;;;;;;;;;;;;;;;;;137987;1270;22375;-80
2024/02/25 02:28:04;;;;;;;;;;;;;;;;;;137995;1270;22297;-81
2024/02/25 02:31:07;;;;;;;;;;;;;;;;;;137998;1271;22268;-80
2024/02/25 02:34:09;;;;;;;;;;;;;;;;;;137957;1271;22241;-81
2024/02/25 02:37:12;;;;;;;;;;;;;;;;;;137945;1270;22157;-81
2024/02/25 02:40:15;;;;;;;;;;;;;;;;;;137935;1270;22297;-81
2024/02/25 02:43:17;;;;;;;;;;;;;;;;;;137943;1271;22427;-81
2024/02/25 02:46:20;;;;;;;;;;;;;;;;;;137973;1270;22286;-80
2024/02/25 02:49:22;;;;;;;;;;;;;;;;;;137934;1271;22293;-80
2024/02/25 02:52:24;;;;;;;;;;;;;;;;;;137998;1271;22278;-81
2024/02/25 02:55:27;;;;;;;;;;;;;;;;;;137967;1271;22800;-80
2024/02/25 02:58:29;;;;;;;;;;;;;;;;;;137963;1271;22663;-81
2024/02/25 03:01:32;;;;;;;;;;;;;;;;;;137988;1269;22254;-81
2024/02/25 03:04:34;;;;;;;;;;;;;;;;;;137945;1271;22749;-81
2024/02/25 03:07:37;;;;;;;;;;;;;;;;;;137942;1271;22751;-81
2024/02/25 03:10:39;;;;;;;;;;;;;;;;;;137958;1271;22310;-80
2024/02/25 03:13:42;;;;;;;;;;;;;;;;;;137967;1270;22375;-81
2024/02/25 03:16:44;;;;;;;;;;;;;;;;;;137941;1269;22240;-81
2024/02/25 03:19:49;;;;;;;;;;;;;;;;;;138024;1271;22267;-81
2024/02/25 03:22:52;;;;;;;;;;;;;;;;;;138110;1270;22456;-82
2024/02/25 03:25:54;;;;;;;;;;;;;;;;;;138032;1271;22193;-82
2024/02/25 03:28:57;;;;;;;;;;;;;;;;;;138114;1271;22228;-82
2024/02/25 03:31:59;;;;;;;;;;;;;;;;;;138106;1271;22212;-82
2024/02/25 03:35:02;;;;;;;;;;;;;;;;;;138057;1271;22389;-82
2024/02/25 03:38:05;;;;;;;;;;;;;;;;;;138034;1270;22295;-82
2024/02/25 03:41:07;;;;;;;;;;;;;;;;;;138023;1271;22631;-82
2024/02/25 03:44:10;;;;;;;;;;;;;;;;;;137989;1270;22384;-81
2024/02/25 03:47:12;;;;;;;;;;;;;;;;;;137953;1271;22764;-81
2024/02/25 03:50:15;;;;;;;;;;;;;;;;;;137953;1270;22283;-81
2024/02/25 03:53:20;;;;;;;;;;;;;;;;;;137913;1271;22362;-82
2024/02/25 03:56:24;;;;;;;;;;;;;;;;;;137926;1271;22392;-81
2024/02/25 03:59:27;;;;;;;;;;;;;;;;;;137967;1270;22264;-81
2024/02/25 04:02:29;;;;;;;;;;;;;;;;;;137943;1270;22281;-81
2024/02/25 04:05:32;;;;;;;;;;;;;;;;;;137944;1271;22208;-81
2024/02/25 04:08:34;;;;;;;;;;;;;;;;;;137915;1270;22257;-81
2024/02/25 04:11:37;;;;;;;;;;;;;;;;;;137960;1270;22356;-81
2024/02/25 04:14:39;;;;;;;;;;;;;;;;;;137918;1271;22321;-81
2024/02/25 04:17:42;;;;;;;;;;;;;;;;;;137916;1270;22647;-81
2024/02/25 04:20:44;;;;;;;;;;;;;;;;;;137928;1272;22264;-81
2024/02/25 04:23:47;;;;;;;;;;;;;;;;;;137886;1271;22838;-80
2024/02/25 04:26:49;;;;;;;;;;;;;;;;;;137943;1271;22261;-80
2024/02/25 04:29:52;;;;;;;;;;;;;;;;;;137914;1271;22162;-80
2024/02/25 04:32:54;;;;;;;;;;;;;;;;;;137915;1271;22251;-82
2024/02/25 04:35:57;;;;;;;;;;;;;;;;;;137963;1271;22217;-82
2024/02/25 04:39:00;;;;;;;;;;;;;;;;;;137878;1271;22364;-82
2024/02/25 04:42:03;;;;;;;;;;;;;;;;;;137964;1271;22257;-82
2024/02/25 04:45:07;;;;;;;;;;;;;;;;;;137911;1270;22415;-81
2024/02/25 04:48:13;;;;;;;;;;;;;;;;;;137930;1271;22323;-81
2024/02/25 04:51:15;;;;;;;;;;;;;;;;;;137969;1270;22263;-81
2024/02/25 04:54:18;;;;;;;;;;;;;;;;;;137970;1264;22839;-81
2024/02/25 04:57:21;;;;;;;;;;;;;;;;;;137746;1270;234457;-82
2024/02/25 05:00:23;;;;;;;;;;;;;;;;;;137939;1271;22274;-82
2024/02/25 05:03:28;;;;;;;;;;;;;;;;;;137977;1271;22143;-82
2024/02/25 05:06:30;;;;;;;;;;;;;;;;;;137910;1270;22311;-81
2024/02/25 05:09:33;;;;;;;;;;;;;;;;;;137895;1270;22650;-81
2024/02/25 05:12:35;;;;;;;;;;;;;;;;;;137952;1270;22671;-81
2024/02/25 05:15:41;;;;;;;;;;;;;;;;;;137957;1271;22165;-81
2024/02/25 05:18:44;;;;;;;;;;;;;;;;;;137908;1270;22640;-81
2024/02/25 05:21:47;;;;;;;;;;;;;;;;;;137941;1270;22270;-81
2024/02/25 05:24:49;;;;;;;;;;;;;;;;;;137931;1271;22430;-81
2024/02/25 05:27:52;;;;;;;;;;;;;;;;;;137952;1270;22275;-82
2024/02/25 05:30:54;;;;;;;;;;;;;;;;;;137918;1270;22626;-81
2024/02/25 05:33:57;;;;;;;;;;;;;;;;;;137926;1271;22203;-81
2024/02/25 05:36:59;;;;;;;;;;;;;;;;;;137926;1270;22293;-81
2024/02/25 05:40:02;;;;;;;;;;;;;;;;;;137954;1270;22745;-81
2024/02/25 05:43:05;;;;;;;;;;;;;;;;;;137911;1270;22505;-81
2024/02/25 05:46:07;;;;;;;;;;;;;;;;;;137941;1270;22252;-82
2024/02/25 05:49:10;;;;;;;;;;;;;;;;;;137887;1270;22152;-81
2024/02/25 05:52:12;;;;;;;;;;;;;;;;;;137949;1271;22701;-81
2024/02/25 05:55:17;;;;;;;;;;;;;;;;;;137952;1267;22495;-81
2024/02/25 05:58:19;;;;;;;;;;;;;;;;;;137982;1270;22265;-81
2024/02/25 06:01:22;;;;;;;;;;;;;;;;;;137942;1270;22356;-79
2024/02/25 06:04:24;;;;;;;;;;;;;;;;;;137934;1271;22325;-80
2024/02/25 06:07:28;;;;;;;;;;;;;;;;;;137888;1270;22173;-80
2024/02/25 06:10:31;;;;;;;;;;;;;;;;;;137922;1270;22178;-80
2024/02/25 06:13:33;;;;;;;;;;;;;;;;;;137912;1270;22162;-79
2024/02/25 06:16:36;;;;;;;;;;;;;;;;;;137923;1270;22341;-79
2024/02/25 06:19:38;;;;;;;;;;;;;;;;;;137832;1270;22314;-79
2024/02/25 06:22:41;;;;;;;;;;;;;;;;;;137993;1270;22231;-79
2024/02/25 06:25:43;;;;;;;;;;;;;;;;;;138000;1270;22264;-78
2024/02/25 06:28:46;;;;;;;;;;;;;;;;;;137974;1270;22260;-77
2024/02/25 06:31:48;;;;;;;;;;;;;;;;;;137994;1270;22214;-78
2024/02/25 06:34:51;;;;;;;;;;;;;;;;;;137965;1270;22347;-79
2024/02/25 06:37:53;;;;;;;;;;;;;;;;;;137930;1270;22351;-80
2024/02/25 06:40:56;;;;;;;;;;;;;;;;;;137932;1270;22308;-80
2024/02/25 06:43:59;;;;;;;;;;;;;;;;;;137933;1270;22376;-79
2024/02/25 06:47:02;;;;;;;;;;;;;;;;;;137903;1270;22280;-79
2024/02/25 06:50:05;;;;;;;;;;;;;;;;;;137925;1270;22258;-79
2024/02/25 06:53:07;;;;;;;;;;;;;;;;;;137883;1270;22389;-80
2024/02/25 06:56:10;;;;;;;;;;;;;;;;;;137933;1270;22301;-80
2024/02/25 06:59:12;;;;;;;;;;;;;;;;;;137921;1270;22338;-80
2024/02/25 07:02:15;;;;;;;;;;;;;;;;;;137950;1270;22251;-80
2024/02/25 07:05:17;;;;;;;;;;;;;;;;;;137888;1270;22191;-79
2024/02/25 07:08:20;;;;;;;;;;;;;;;;;;137971;1270;22247;-80
2024/02/25 07:11:23;;;;;;;;;;;;;;;;;;137926;1270;22277;-81
2024/02/25 07:14:28;;;;;;;;;;;;;;;;;;137891;1270;22168;-80
2024/02/25 07:17:31;;;;;;;;;;;;;;;;;;137908;1270;22178;-79
2024/02/25 07:20:33;;;;;;;;;;;;;;;;;;137897;1261;22285;-80
2024/02/25 07:23:39;;;;;;;;;;;;;;;;;;137827;1270;22376;-80
2024/02/25 07:26:42;;;;;;;;;;;;;;;;;;137872;1270;22207;-81
2024/02/25 07:29:44;;;;;;;;;;;;;;;;;;137939;1270;22751;-80
2024/02/25 07:32:47;;;;;;;;;;;;;;;;;;137894;1270;22810;-81
2024/02/25 07:35:49;;;;;;;;;;;;;;;;;;137922;1270;22632;-79
2024/02/25 07:38:52;;;;;;;;;;;;;;;;;;137913;1270;22264;-81
2024/02/25 07:41:55;;;;;;;;;;;;;;;;;;137970;1270;22250;-80
2024/02/25 07:44:57;;;;;;;;;;;;;;;;;;137968;1270;22847;-82
2024/02/25 07:48:00;;;;;;;;;;;;;;;;;;137945;1270;22733;-81
2024/02/25 07:51:02;;;;;;;;;;;;;;;;;;137937;1270;22286;-81
2024/02/25 07:54:04;;;;;;;;;;;;;;;;;;137946;1270;22889;-81
2024/02/25 07:57:08;;;;;;;;;;;;;;;;;;137914;1270;22709;-81
2024/02/25 08:00:10;;;;;;;;;;;;;;;;;;137962;1270;22292;-80
2024/02/25 08:03:13;;;;;;;;;;;;;;;;;;137900;1270;22248;-81
2024/02/25 08:06:15;;;;;;;;;;;;;;;;;;137906;1270;22637;-80
2024/02/25 08:09:20;;;;;;;;;;;;;;;;;;137952;1270;22166;-80
2024/02/25 08:12:22;;;;;;;;;;;;;;;;;;137929;1270;22185;-80
2024/02/25 08:15:25;;;;;;;;;;;;;;;;;;137951;1256;22224;-80
2024/02/25 08:18:27;;;;;;;;;;;;;;;;;;137909;1270;22176;-80
2024/02/25 08:21:30;;;;;;;;;;;;;;;;;;137908;1270;22310;-80
2024/02/25 08:24:34;;;;;;;;;;;;;;;;;;137939;1270;22351;-80
2024/02/25 08:27:39;;;;;;;;;;;;;;;;;;137946;1270;22312;-79
2024/02/25 08:30:42;;;;;;;;;;;;;;;;;;137907;1270;22328;-82
2024/02/25 08:33:47;;;;;;;;;;;;;;;;;;137923;1256;22403;-81
2024/02/25 08:36:49;;;;;;;;;;;;;;;;;;137938;1270;22203;-80
2024/02/25 08:39:51;;;;;;;;;;;;;;;;;;137938;1270;22275;-81
2024/02/25 08:42:54;;;;;;;;;;;;;;;;;;137967;1270;22192;-81
2024/02/25 08:45:56;;;;;;;;;;;;;;;;;;137977;1270;22365;-81
2024/02/25 08:48:59;;;;;;;;;;;;;;;;;;137967;1270;22647;-81
2024/02/25 08:52:01;;;;;;;;;;;;;;;;;;137933;1270;22210;-81
2024/02/25 08:55:04;;;;;;;;;;;;;;;;;;137966;1270;22407;-81
2024/02/25 08:58:09;;;;;;;;;;;;;;;;;;137980;1270;22328;-82
2024/02/25 09:01:12;;;;;;;;;;;;;;;;;;137977;1270;22209;-81
2024/02/25 09:04:14;;;;;;;;;;;;;;;;;;137973;1270;22285;-82
2024/02/25 09:07:17;;;;;;;;;;;;;;;;;;137982;1270;22266;-80
2024/02/25 09:10:19;;;;;;;;;;;;;;;;;;138003;1266;22237;-80
2024/02/25 09:13:22;;;;;;;;;;;;;;;;;;138028;1270;22161;-81
2024/02/25 09:16:25;;;;;;;;;;;;;;;;;;138036;1270;22455;-81
2024/02/25 09:19:27;;;;;;;;;;;;;;;;;;138012;1270;22257;-80
2024/02/25 09:22:30;;;;;;;;;;;;;;;;;;138094;1270;22203;-80
2024/02/25 09:29:05;;;;;;;;;;;;;;;;;;133458;1310;544129;-78
2024/02/25 09:32:06;;;;;;;;;;;;;;;;;;136232;1277;22492;-78
2024/02/25 09:35:07;;;;;;;;;;;;;;;;;;136361;1284;22625;-79
2024/02/25 09:38:09;;;;;;;;;;;;;;;;;;135908;1285;22589;-78
2024/02/25 09:41:10;;;;;;;;;;;;;;;;;;136127;1282;210017;-79
2024/02/25 09:44:11;;;;;;;;;;;;;;;;;;136441;1278;22564;-78
2024/02/25 09:47:12;;;;;;;;;;;;;;;;;;136790;1282;22596;-78
2024/02/25 09:50:13;;;;;;;;;;;;;;;;;;137003;1274;22539;-78
2024/02/25 09:53:14;;;;;;;;;;;;;;;;;;137041;1274;22506;-78
2024/02/25 09:56:15;;;;;;;;;;;;;;;;;;137559;1274;22476;-78
2024/02/25 09:59:17;;;;;;;;;;;;;;;;;;137073;1274;22499;-78
2024/02/25 10:02:18;;;;;;;;;;;;;;;;;;136899;1274;22507;-77
2024/02/25 10:05:19;;;;;;;;;;;;;;;;;;137205;1274;22507;-79
2024/02/25 10:08:20;;;;;;;;;;;;;;;;;;137141;1274;22529;-79
2024/02/25 10:11:25;;;;;;;;;;;;;;;;;;137155;1273;22494;-78
2024/02/25 10:14:26;;;;;;;;;;;;;;;;;;137206;1273;22511;-79
2024/02/25 10:17:27;;;;;;;;;;;;;;;;;;137455;1273;22521;-79
2024/02/25 10:20:28;;;;;;;;;;;;;;;;;;137204;1273;22910;-79
2024/02/25 10:23:30;;;;;;;;;;;;;;;;;;137351;1273;22566;-79
2024/02/25 10:26:32;;;;;;;;;;;;;;;;;;137571;1273;22513;-79
2024/02/25 10:29:33;;;;;;;;;;;;;;;;;;137179;1273;23097;-79
2024/02/25 10:32:35;;;;;;;;;;;;;;;;;;137241;1273;22878;-78
2024/02/25 10:35:38;;;;;;;;;;;;;;;;;;137553;1273;22881;-79
2024/02/25 10:38:44;;;;;;;;;;;;;;;;;;137290;1273;22481;-79
2024/02/25 10:41:45;;;;;;;;;;;;;;;;;;137139;1274;22543;-80
2024/02/25 10:44:46;;;;;;;;;;;;;;;;;;137251;1266;22563;-79
2024/02/25 10:47:47;;;;;;;;;;;;;;;;;;137491;1274;22526;-79
2024/02/25 10:50:49;;;;;;;;;;;;;;;;;;137277;1274;22630;-79
2024/02/25 10:53:50;;;;;;;;;;;;;;;;;;137170;1274;22532;-79
2024/02/25 10:56:52;;;;;;;;;;;;;;;;;;137661;1274;23033;-79
2024/02/25 10:59:53;;;;;;;;;;;;;;;;;;137109;1274;22505;-79
2024/02/25 11:02:54;;;;;;;;;;;;;;;;;;137517;1274;22610;-79
2024/02/25 11:05:57;;;;;;;;;;;;;;;;;;137615;1274;22404;-79
2024/02/25 11:08:58;;;;;;;;;;;;;;;;;;137490;1274;23010;-80
2024/02/25 11:12:03;;;;;;;;;;;;;;;;;;137279;1273;22505;-78
2024/02/25 11:15:05;;;;;;;;;;;;;;;;;;137609;1274;22329;-79
2024/02/25 11:18:07;;;;;;;;;;;;;;;;;;137550;1274;23554;-78
2024/02/25 11:21:09;;;;;;;;;;;;;;;;;;137210;1268;22560;-80
2024/02/25 11:24:12;;;;;;;;;;;;;;;;;;137251;1274;22520;-79
2024/02/25 11:27:13;;;;;;;;;;;;;;;;;;137625;1274;22423;-80
2024/02/25 11:30:14;;;;;;;;;;;;;;;;;;137321;1274;22533;-80
2024/02/25 11:33:15;;;;;;;;;;;;;;;;;;137523;1274;22527;-79
2024/02/25 11:36:19;;;;;;;;;;;;;;;;;;137512;1274;22503;-80
2024/02/25 11:39:20;;;;;;;;;;;;;;;;;;137364;1274;22479;-77
2024/02/25 11:42:21;;;;;;;;;;;;;;;;;;137587;1274;22467;-78
2024/02/25 11:45:23;;;;;;;;;;;;;;;;;;137489;1274;22541;-80
2024/02/25 11:48:30;;;;;;;;;;;;;;;;;;137307;1274;22520;-79
2024/02/25 11:51:31;;;;;;;;;;;;;;;;;;137399;1274;22975;-80
2024/02/25 11:54:35;;;;;;;;;;;;;;;;;;137402;1274;22555;-80
2024/02/25 11:57:39;;;;;;;;;;;;;;;;;;137501;1274;22509;-80
2024/02/25 12:00:40;;;;;;;;;;;;;;;;;;137311;1274;22523;-80
2024/02/25 12:03:41;;;;;;;;;;;;;;;;;;137350;1271;22496;-80
2024/02/25 12:06:44;;;;;;;;;;;;;;;;;;137552;1274;22914;-80
2024/02/25 12:09:45;;;;;;;;;;;;;;;;;;137334;1274;22493;-80
2024/02/25 12:12:46;;;;;;;;;;;;;;;;;;137343;1274;22509;-80
2024/02/25 12:15:48;;;;;;;;;;;;;;;;;;137396;1274;23305;-79
2024/02/25 12:18:49;;;;;;;;;;;;;;;;;;137142;1274;22548;-78
2024/02/25 12:21:51;;;;;;;;;;;;;;;;;;137250;1274;22961;-79
2024/02/25 12:24:52;;;;;;;;;;;;;;;;;;137214;1274;22979;-77
2024/02/25 12:27:54;;;;;;;;;;;;;;;;;;137579;1274;22547;-79
2024/02/25 12:30:55;;;;;;;;;;;;;;;;;;137226;1274;22503;-79
2024/02/25 12:33:56;;;;;;;;;;;;;;;;;;137235;1274;23064;-79
2024/02/25 12:36:57;;;;;;;;;;;;;;;;;;137591;1274;22478;-78
2024/02/25 12:39:58;;;;;;;;;;;;;;;;;;137256;1274;22542;-79
2024/02/25 12:42:59;;;;;;;;;;;;;;;;;;137286;1266;22524;-79
2024/02/25 12:46:01;;;;;;;;;;;;;;;;;;137444;1274;27089;-78
2024/02/25 12:49:02;;;;;;;;;;;;;;;;;;137236;1274;22486;-79
2024/02/25 12:52:03;;;;;;;;;;;;;;;;;;137335;1274;22550;-78
2024/02/25 12:55:04;;;;;;;;;;;;;;;;;;137525;1274;22570;-79
2024/02/25 12:58:06;;;;;;;;;;;;;;;;;;136969;1274;22521;-77
2024/02/25 13:01:07;;;;;;;;;;;;;;;;;;137398;1274;22555;-78
2024/02/25 13:04:09;;;;;;;;;;;;;;;;;;137352;1274;23078;-78
2024/02/25 13:07:10;;;;;;;;;;;;;;;;;;137619;1274;22383;-78
2024/02/25 13:10:11;;;;;;;;;;;;;;;;;;137240;1274;22500;-78
2024/02/25 13:13:12;;;;;;;;;;;;;;;;;;137218;1274;22516;-78
2024/02/25 13:16:13;;;;;;;;;;;;;;;;;;137506;1273;22552;-79
2024/02/25 13:19:14;;;;;;;;;;;;;;;;;;137403;1272;22487;-79
2024/02/25 13:22:15;;;;;;;;;;;;;;;;;;137201;1266;22558;-79
2024/02/25 13:25:17;;;;;;;;;;;;;;;;;;137488;1274;22920;-80
2024/02/25 13:28:18;;;;;;;;;;;;;;;;;;137345;1274;22555;-78
2024/02/25 13:31:19;;;;;;;;;;;;;;;;;;137463;1274;22519;-79
2024/02/25 13:34:20;;;;;;;;;;;;;;;;;;137466;1273;22513;-79
2024/02/25 13:37:21;;;;;;;;;;;;;;;;;;137524;1274;22488;-78
2024/02/25 13:40:22;;;;;;;;;;;;;;;;;;137535;1274;22576;-78
2024/02/25 13:43:23;;;;;;;;;;;;;;;;;;137407;1274;22501;-79
2024/02/25 13:46:25;;;;;;;;;;;;;;;;;;137582;1274;22587;-80
2024/02/25 13:49:27;;;;;;;;;;;;;;;;;;137381;1274;22623;-79
2024/02/25 13:52:31;;;;;;;;;;;;;;;;;;137309;1274;22477;-79
2024/02/25 13:55:32;;;;;;;;;;;;;;;;;;137404;1274;22948;-79
2024/02/25 13:58:33;;;;;;;;;;;;;;;;;;137372;1269;22524;-78
2024/02/25 14:01:34;;;;;;;;;;;;;;;;;;137314;1274;22507;-79
2024/02/25 14:04:38;;;;;;;;;;;;;;;;;;137394;1274;22511;-80
2024/02/25 14:07:39;;;;;;;;;;;;;;;;;;137528;1274;22659;-78
2024/02/25 14:10:40;;;;;;;;;;;;;;;;;;137715;1271;22476;-79
2024/02/25 14:13:41;;;;;;;;;;;;;;;;;;137651;1271;22586;-79
2024/02/25 14:16:43;;;;;;;;;;;;;;;;;;138014;1270;22594;-78
2024/02/25 14:19:44;;;;;;;;;;;;;;;;;;137689;1270;22537;-78
2024/02/25 14:22:45;;;;;;;;;;;;;;;;;;137718;1270;22550;-79
2024/02/25 14:25:47;;;;;;;;;;;;;;;;;;137978;1270;22520;-79
2024/02/25 14:28:48;;;;;;;;;;;;;;;;;;137707;1270;22493;-79
2024/02/25 14:31:50;;;;;;;;;;;;;;;;;;137713;1270;22498;-79
2024/02/25 14:34:51;;;;;;;;;;;;;;;;;;137798;1269;22457;-80
2024/02/25 14:37:55;;;;;;;;;;;;;;;;;;137674;1270;22524;-78
2024/02/25 14:40:56;;;;;;;;;;;;;;;;;;137668;1270;22504;-78
2024/02/25 14:43:57;;;;;;;;;;;;;;;;;;137679;1271;22536;-78
2024/02/25 14:46:59;;;;;;;;;;;;;;;;;;137937;1271;22535;-79
2024/02/25 14:50:00;;;;;;;;;;;;;;;;;;137697;1270;22502;-78
2024/02/25 14:53:01;;;;;;;;;;;;;;;;;;137600;1270;22473;-78
2024/02/25 14:56:02;;;;;;;;;;;;;;;;;;137915;1271;22508;-78
2024/02/25 14:59:03;;;;;;;;;;;;;;;;;;137683;1270;22496;-79
2024/02/25 15:02:05;;;;;;;;;;;;;;;;;;137755;1271;22501;-79
2024/02/25 15:05:06;;;;;;;;;;;;;;;;;;137950;1266;22536;-79
2024/02/25 15:08:07;;;;;;;;;;;;;;;;;;137590;1270;22484;-78
2024/02/25 15:11:08;;;;;;;;;;;;;;;;;;137699;1271;22493;-78
2024/02/25 15:14:09;;;;;;;;;;;;;;;;;;137725;1266;22534;-77
2024/02/25 15:17:14;;;;;;;;;;;;;;;;;;137977;1271;22516;-78
2024/02/25 15:20:15;;;;;;;;;;;;;;;;;;137767;1270;22499;-79
2024/02/25 15:23:16;;;;;;;;;;;;;;;;;;137669;1271;22558;-79
2024/02/25 15:26:18;;;;;;;;;;;;;;;;;;137986;1271;22498;-79
2024/02/25 15:29:19;;;;;;;;;;;;;;;;;;137549;1271;22919;-79
2024/02/25 15:32:22;;;;;;;;;;;;;;;;;;137740;1266;22513;-79
2024/02/25 15:35:25;;;;;;;;;;;;;;;;;;137902;1270;22507;-79
2024/02/25 15:38:27;;;;;;;;;;;;;;;;;;137704;1271;22939;-79
2024/02/25 15:41:28;;;;;;;;;;;;;;;;;;137761;1270;22604;-79
2024/02/25 15:44:29;;;;;;;;;;;;;;;;;;137811;1271;22469;-79
2024/02/25 15:47:30;;;;;;;;;;;;;;;;;;137765;1270;22547;-78
2024/02/25 15:50:32;;;;;;;;;;;;;;;;;;137716;1270;22957;-78
2024/02/25 15:53:33;;;;;;;;;;;;;;;;;;137694;1270;23035;-79
2024/02/25 15:56:34;;;;;;;;;;;;;;;;;;137979;1270;22497;-79
2024/02/25 15:59:35;;;;;;;;;;;;;;;;;;137729;1271;22567;-77
2024/02/25 16:02:37;;;;;;;;;;;;;;;;;;137702;1271;22970;-78
2024/02/25 16:05:38;;;;;;;;;;;;;;;;;;137962;1270;22347;-78
2024/02/25 16:08:41;;;;;;;;;;;;;;;;;;137581;1271;22500;-78
2024/02/25 16:11:43;;;;;;;;;;;;;;;;;;137760;1270;22503;-78
2024/02/25 16:14:45;;;;;;;;;;;;;;;;;;137936;1271;22458;-79
2024/02/25 16:17:46;;;;;;;;;;;;;;;;;;137594;1270;22522;-78
2024/02/25 16:20:48;;;;;;;;;;;;;;;;;;137894;1270;22499;-78
2024/02/25 16:23:51;;;;;;;;;;;;;;;;;;137386;1270;22523;-79
2024/02/25 16:26:52;;;;;;;;;;;;;;;;;;137255;1270;22512;-77
2024/02/25 16:29:53;;;;;;;;;;;;;;;;;;137592;1270;22511;-79
2024/02/25 16:32:55;;;;;;;;;;;;;;;;;;137378;1271;22567;-80
2024/02/25 16:35:56;;;;;;;;;;;;;;;;;;137278;1270;23003;-79
2024/02/25 16:38:57;;;;;;;;;;;;;;;;;;137447;1270;22449;-78
2024/02/25 16:41:58;;;;;;;;;;;;;;;;;;137733;1271;22500;-83
2024/02/25 16:45:00;;;;;;;;;;;;;;;;;;137836;1270;22548;-83
2024/02/25 16:48:01;;;;;;;;;;;;;;;;;;137674;1260;22989;-83
2024/02/25 16:51:02;;;;;;;;;;;;;;;;;;137651;1270;22584;-82
2024/02/25 16:54:03;;;;;;;;;;;;;;;;;;137599;1271;22637;-83
2024/02/25 16:57:05;;;;;;;;;;;;;;;;;;137800;1271;22483;-82
2024/02/25 17:00:10;;;;;;;;;;;;;;;;;;137739;1271;22520;-83
2024/02/25 17:03:12;;;;;;;;;;;;;;;;;;137712;1271;23001;-82
2024/02/25 17:06:13;;;;;;;;;;;;;;;;;;137932;1271;23036;-82
2024/02/25 17:09:14;;;;;;;;;;;;;;;;;;137766;1271;22497;-79
2024/02/25 17:12:15;;;;;;;;;;;;;;;;;;137756;1270;22532;-81
2024/02/25 17:15:16;;;;;;;;;;;;;;;;;;137807;1271;22949;-80
2024/02/25 17:18:17;;;;;;;;;;;;;;;;;;137713;1271;22539;-82
2024/02/25 17:21:20;;;;;;;;;;;;;;;;;;137604;1270;22525;-82
2024/02/25 17:24:21;;;;;;;;;;;;;;;;;;137743;1271;22551;-83
2024/02/25 17:27:22;;;;;;;;;;;;;;;;;;137676;1271;22449;-80
2024/02/25 17:30:23;;;;;;;;;;;;;;;;;;137619;1271;22944;-82
2024/02/25 17:33:24;;;;;;;;;;;;;;;;;;137626;1271;22966;-80
2024/02/25 17:36:26;;;;;;;;;;;;;;;;;;137834;1270;22529;-79
2024/02/25 17:39:27;;;;;;;;;;;;;;;;;;137841;1271;23007;-80
2024/02/25 17:42:29;;;;;;;;;;;;;;;;;;137834;1270;22552;-82
2024/02/25 17:45:30;;;;;;;;;;;;;;;;;;137994;1270;22283;-82
2024/02/25 17:48:35;;;;;;;;;;;;;;;;;;137748;1271;22600;-80
2024/02/25 17:51:36;;;;;;;;;;;;;;;;;;137689;1270;22497;-82
2024/02/25 17:54:37;;;;;;;;;;;;;;;;;;137833;1270;23297;-79
2024/02/25 17:57:39;;;;;;;;;;;;;;;;;;137810;1271;22498;-78
2024/02/25 18:00:40;;;;;;;;;;;;;;;;;;137721;1270;22579;-80
2024/02/25 18:03:41;;;;;;;;;;;;;;;;;;137676;1270;22528;-78
2024/02/25 18:06:42;;;;;;;;;;;;;;;;;;137862;1270;22493;-79
2024/02/25 18:09:44;;;;;;;;;;;;;;;;;;137570;1270;22520;-77
2024/02/25 18:12:45;;;;;;;;;;;;;;;;;;137701;1270;22954;-79
2024/02/25 18:15:46;;;;;;;;;;;;;;;;;;137911;1270;23091;-79
2024/02/25 18:18:47;;;;;;;;;;;;;;;;;;137914;1270;22924;-78
2024/02/25 18:21:49;;;;;;;;;;;;;;;;;;137753;1270;22506;-78
2024/02/25 18:24:53;;;;;;;;;;;;;;;;;;137938;1271;22763;-79
2024/02/25 18:27:54;;;;;;;;;;;;;;;;;;137747;1271;23001;-79
2024/02/25 18:30:56;;;;;;;;;;;;;;;;;;137692;1271;22501;-78
2024/02/25 18:33:57;;;;;;;;;;;;;;;;;;137862;1267;22867;-79
2024/02/25 18:37:00;;;;;;;;;;;;;;;;;;137871;1271;22512;-78
2024/02/25 18:40:01;;;;;;;;;;;;;;;;;;137883;1270;22495;-79
2024/02/25 18:43:02;;;;;;;;;;;;;;;;;;137658;1270;22572;-80
2024/02/25 18:46:03;;;;;;;;;;;;;;;;;;137880;1271;22542;-79
2024/02/25 18:49:06;;;;;;;;;;;;;;;;;;137718;1271;22502;-80
2024/02/25 18:52:09;;;;;;;;;;;;;;;;;;137586;1270;22531;-79
2024/02/25 18:55:10;;;;;;;;;;;;;;;;;;137825;1270;22505;-80
2024/02/25 18:58:11;;;;;;;;;;;;;;;;;;137623;1270;22526;-78
2024/02/25 19:01:13;;;;;;;;;;;;;;;;;;137657;1270;22506;-79
2024/02/25 19:04:14;;;;;;;;;;;;;;;;;;137742;1271;22516;-79
2024/02/25 19:07:15;;;;;;;;;;;;;;;;;;137870;1271;22515;-79
2024/02/25 19:10:17;;;;;;;;;;;;;;;;;;137640;1271;22534;-78
2024/02/25 19:13:19;;;;;;;;;;;;;;;;;;137702;1270;22551;-79
2024/02/25 19:16:20;;;;;;;;;;;;;;;;;;137923;1271;22671;-79
2024/02/25 19:19:21;;;;;;;;;;;;;;;;;;137813;1260;22466;-79
2024/02/25 19:22:22;;;;;;;;;;;;;;;;;;137688;1270;22530;-79
2024/02/25 19:25:24;;;;;;;;;;;;;;;;;;137896;1270;22513;-78
2024/02/25 19:28:26;;;;;;;;;;;;;;;;;;137893;1267;22506;-78
2024/02/25 19:31:27;;;;;;;;;;;;;;;;;;137656;1270;22500;-79
2024/02/25 19:34:32;;;;;;;;;;;;;;;;;;137864;1270;22563;-79
2024/02/25 19:37:33;;;;;;;;;;;;;;;;;;137686;1270;22522;-78
2024/02/25 19:40:34;;;;;;;;;;;;;;;;;;137675;1270;22513;-79
2024/02/25 19:43:37;;;;;;;;;;;;;;;;;;137719;1271;22557;-78
2024/02/25 19:46:40;;;;;;;;;;;;;;;;;;137304;1270;22489;-78
2024/02/25 19:49:41;;;;;;;;;;;;;;;;;;137717;1267;22506;-78
2024/02/25 19:52:42;;;;;;;;;;;;;;;;;;137126;1270;22538;-78
2024/02/25 19:55:44;;;;;;;;;;;;;;;;;;137891;1270;22531;-79
2024/02/25 19:58:45;;;;;;;;;;;;;;;;;;137991;1271;22480;-78
2024/02/25 20:01:46;;;;;;;;;;;;;;;;;;137944;1270;22527;-77
2024/02/25 20:04:47;;;;;;;;;;;;;;;;;;137957;1270;22327;-78
2024/02/25 20:07:48;;;;;;;;;;;;;;;;;;137741;1270;22491;-77
2024/02/25 20:10:51;;;;;;;;;;;;;;;;;;137601;1270;22535;-78
2024/02/25 20:13:52;;;;;;;;;;;;;;;;;;137715;1270;22522;-78
2024/02/25 20:16:53;;;;;;;;;;;;;;;;;;137845;1270;22505;-78
2024/02/25 20:19:54;;;;;;;;;;;;;;;;;;137562;1271;22489;-78
2024/02/25 20:22:55;;;;;;;;;;;;;;;;;;137706;1270;22531;-80
2024/02/25 20:25:56;;;;;;;;;;;;;;;;;;137886;1270;22601;-80